createdAt,value
2022-11-10T00:00:49.799Z,100531.45
2022-11-10T00:02:11.423Z,100527.05
2022-11-10T00:03:33.618Z,100537.70
2022-11-10T00:04:54.149Z,100530.61
2022-11-10T00:06:15.562Z,100535.96
2022-11-10T00:07:37.896Z,100532.34
2022-11-10T00:08:59.072Z,100527.05
2022-11-10T00:10:19.987Z,100533.28
2022-11-10T00:11:42.468Z,100533.28
2022-11-10T00:13:03.207Z,100526.11
2022-11-10T00:14:24.565Z,100528.78
2022-11-10T00:15:45.110Z,100526.11
2022-11-10T00:17:05.763Z,100529.66
2022-11-10T00:18:27.538Z,100526.98
2022-11-10T00:19:48.283Z,100536.81
2022-11-10T00:21:09.971Z,100532.34
2022-11-10T00:22:31.067Z,100536.81
2022-11-10T00:23:51.454Z,100533.19
2022-11-10T00:25:12.320Z,100527.93
2022-11-10T00:26:33.313Z,100525.25
2022-11-10T00:27:54.133Z,100520.75
2022-11-10T00:29:16.014Z,100525.25
2022-11-10T00:30:37.245Z,100530.61
2022-11-10T00:31:59.417Z,100519.90
2022-11-10T00:33:20.382Z,100524.38
2022-11-10T00:34:41.893Z,100522.67
2022-11-10T00:36:02.788Z,100522.67
2022-11-10T00:37:24.642Z,100527.14
2022-11-10T00:38:46.687Z,100528.96
2022-11-10T00:40:08.972Z,100528.11
2022-11-10T00:41:30.139Z,100525.50
2022-11-10T00:42:51.634Z,100525.50
2022-11-10T00:44:12.447Z,100526.38
2022-11-10T00:45:33.203Z,100522.81
2022-11-10T00:46:53.841Z,100520.14
2022-11-10T00:48:14.353Z,100516.62
2022-11-10T00:49:35.190Z,100517.56
2022-11-10T00:50:55.969Z,100514.88
2022-11-10T00:52:16.973Z,100514.80
2022-11-10T00:53:37.929Z,100515.67
2022-11-10T00:54:58.819Z,100513.75
2022-11-10T00:56:20.646Z,100508.49
2022-11-10T00:57:41.754Z,100511.08
2022-11-10T00:59:03.114Z,100515.48
2022-11-10T01:00:23.958Z,100509.29
2022-11-10T01:01:44.611Z,100514.55
2022-11-10T01:03:05.693Z,100506.52
2022-11-10T01:04:26.175Z,100508.25
2022-11-10T01:05:46.790Z,100504.69
2022-11-10T01:07:09.202Z,100508.16
2022-11-10T01:08:30.855Z,100512.63
2022-11-10T01:09:52.724Z,100507.28
2022-11-10T01:11:17.269Z,100509.86
2022-11-10T01:12:38.051Z,100515.22
2022-11-10T01:13:58.881Z,100512.45
2022-11-10T01:15:24.375Z,100506.24
2022-11-10T01:16:42.310Z,100512.45
2022-11-10T01:18:03.128Z,100509.77
2022-11-10T01:19:23.975Z,100507.97
2022-11-10T01:20:50.558Z,100505.30
2022-11-10T01:22:11.366Z,100503.47
2022-11-10T01:23:32.852Z,100494.50
2022-11-10T01:24:53.892Z,100505.20
2022-11-10T01:26:15.366Z,100496.33
2022-11-10T01:27:36.004Z,100499.76
2022-11-10T01:28:56.811Z,100499.76
2022-11-10T01:30:18.826Z,100495.25
2022-11-10T01:31:40.264Z,100489.05
2022-11-10T01:33:01.150Z,100496.23
2022-11-10T01:34:22.456Z,100493.56
2022-11-10T01:35:43.288Z,100492.67
2022-11-10T01:37:04.303Z,100493.56
2022-11-10T01:38:29.200Z,100496.23
2022-11-10T01:39:49.882Z,100491.73
2022-11-10T01:41:12.971Z,100494.41
2022-11-10T01:42:49.249Z,100493.47
2022-11-10T01:44:21.796Z,100492.58
2022-11-10T01:45:57.524Z,100497.08
2022-11-10T01:47:18.292Z,100494.50
2022-11-10T01:48:54.741Z,100507.03
2022-11-10T01:50:16.626Z,100497.27
2022-11-10T01:51:50.916Z,100501.68
2022-11-10T01:53:14.757Z,100500.80
2022-11-10T01:55:50.784Z,100498.44
2022-11-10T01:57:12.222Z,100508.83
2022-11-10T01:58:33.991Z,100502.63
2022-11-10T01:59:54.564Z,100503.47
2022-11-10T02:01:15.917Z,100506.94
2022-11-10T02:02:59.162Z,100499.76
2022-11-10T02:04:19.803Z,100513.05
2022-11-10T02:05:40.278Z,100504.17
2022-11-10T02:07:00.640Z,100511.25
2022-11-10T02:08:21.787Z,100509.43
2022-11-10T02:09:43.067Z,100507.70
2022-11-10T02:11:04.094Z,100510.38
2022-11-10T02:12:25.545Z,100512.11
2022-11-10T02:13:46.049Z,100516.61
2022-11-10T02:15:08.633Z,100512.11
2022-11-10T02:16:29.616Z,100512.11
2022-11-10T02:17:51.025Z,100512.95
2022-11-10T02:20:34.675Z,100501.44
2022-11-10T02:21:56.887Z,100505.63
2022-11-10T02:23:33.018Z,100508.30
2022-11-10T02:24:53.849Z,100509.06
2022-11-10T02:27:35.073Z,100510.17
2022-11-10T02:28:56.565Z,100507.17
2022-11-10T02:30:17.344Z,100516.05
2022-11-10T02:31:38.320Z,100509.84
2022-11-10T02:32:58.678Z,100506.23
2022-11-10T02:34:19.470Z,100507.93
2022-11-10T02:35:40.761Z,100511.58
2022-11-10T02:37:01.672Z,100511.48
2022-11-10T02:38:22.216Z,100510.52
2022-11-10T02:39:42.448Z,100517.60
2022-11-10T02:41:03.205Z,100513.19
2022-11-10T02:42:24.089Z,100506.89
2022-11-10T02:43:44.917Z,100511.39
2022-11-10T02:45:06.715Z,100510.45
2022-11-10T02:46:28.517Z,100511.30
2022-11-10T02:47:50.060Z,100516.66
2022-11-10T02:49:11.139Z,100512.16
2022-11-10T02:50:32.070Z,100513.12
2022-11-10T02:51:52.448Z,100513.98
2022-11-10T02:53:13.347Z,100513.98
2022-11-10T02:54:34.243Z,100513.03
2022-11-10T02:55:55.048Z,100508.02
2022-11-10T02:57:15.650Z,100518.30
2022-11-10T02:58:36.507Z,100512.06
2022-11-10T02:59:57.829Z,100515.71
2022-11-10T03:01:18.310Z,100514.83
2022-11-10T03:02:39.008Z,100505.09
2022-11-10T03:04:00.503Z,100506.04
2022-11-10T03:05:21.164Z,100506.04
2022-11-10T03:06:42.010Z,100501.72
2022-11-10T03:08:02.975Z,100509.75
2022-11-10T03:09:24.567Z,100503.55
2022-11-10T03:10:45.648Z,100500.88
2022-11-10T03:12:06.276Z,100501.72
2022-11-10T03:13:35.678Z,100497.31
2022-11-10T03:16:10.789Z,100503.61
2022-11-10T03:17:31.581Z,100500.09
2022-11-10T03:18:52.626Z,100497.41
2022-11-10T03:20:14.003Z,100499.14
2022-11-10T03:21:34.700Z,100494.73
2022-11-10T03:23:00.971Z,100493.88
2022-11-10T03:24:21.355Z,100499.23
2022-11-10T03:25:42.601Z,100493.97
2022-11-10T03:27:03.316Z,100489.56
2022-11-10T03:28:24.228Z,100492.23
2022-11-10T03:29:44.947Z,100496.74
2022-11-10T03:31:06.264Z,100489.56
2022-11-10T03:32:26.971Z,100495.86
2022-11-10T03:33:47.596Z,100495.86
2022-11-10T03:35:08.546Z,100496.74
2022-11-10T03:36:29.267Z,100495.01
2022-11-10T03:37:50.043Z,100488.77
2022-11-10T03:39:10.966Z,100488.77
2022-11-10T03:40:45.498Z,100486.09
2022-11-10T03:43:17.202Z,100487.92
2022-11-10T03:44:38.070Z,100476.36
2022-11-10T03:45:58.952Z,100486.98
2022-11-10T03:47:20.080Z,100481.63
2022-11-10T03:48:41.172Z,100486.09
2022-11-10T03:50:02.063Z,100478.06
2022-11-10T03:51:23.619Z,100485.16
2022-11-10T03:52:46.423Z,100476.27
2022-11-10T03:54:06.716Z,100475.39
2022-11-10T03:55:27.589Z,100474.45
2022-11-10T03:56:48.080Z,100475.33
2022-11-10T03:58:08.772Z,100467.30
2022-11-10T03:59:29.842Z,100472.65
2022-11-10T04:00:52.935Z,100471.77
2022-11-10T04:02:13.889Z,100458.76
2022-11-10T04:03:35.301Z,100481.53
2022-11-10T04:04:55.839Z,100478.86
2022-11-10T04:06:16.986Z,100478.00
2022-11-10T04:07:38.382Z,100477.03
2022-11-10T04:08:59.125Z,100477.03
2022-11-10T04:10:20.400Z,100482.38
2022-11-10T04:11:40.972Z,100479.70
2022-11-10T04:13:02.022Z,100482.38
2022-11-10T04:14:22.961Z,100477.91
2022-11-10T04:15:44.323Z,100478.86
2022-11-10T04:17:04.663Z,100476.17
2022-11-10T04:18:25.821Z,100472.65
2022-11-10T04:19:46.913Z,100475.33
2022-11-10T04:21:07.667Z,100469.09
2022-11-10T04:22:28.728Z,100468.14
2022-11-10T04:23:49.928Z,100468.14
2022-11-10T04:25:11.103Z,100477.03
2022-11-10T04:26:31.759Z,100472.56
2022-11-10T04:27:52.508Z,100478.86
2022-11-10T04:29:14.338Z,100483.27
2022-11-10T04:30:35.155Z,100477.03
2022-11-10T04:31:55.776Z,100476.93
2022-11-10T04:33:16.670Z,100481.44
2022-11-10T04:34:37.338Z,100476.93
2022-11-10T04:35:58.093Z,100474.25
2022-11-10T04:37:19.085Z,100476.08
2022-11-10T04:38:39.871Z,100475.14
2022-11-10T04:40:00.702Z,100481.34
2022-11-10T04:41:22.804Z,100479.52
2022-11-10T04:42:43.456Z,100482.19
2022-11-10T04:44:05.057Z,100475.98
2022-11-10T04:45:25.866Z,100484.87
2022-11-10T04:46:46.489Z,100485.84
2022-11-10T04:48:06.837Z,100480.49
2022-11-10T04:49:27.797Z,100483.17
2022-11-10T04:50:48.611Z,100484.02
2022-11-10T04:52:10.315Z,100476.93
2022-11-10T04:53:31.687Z,100480.49
2022-11-10T04:54:52.373Z,100480.49
2022-11-10T04:56:15.742Z,100476.84
2022-11-10T04:57:36.432Z,100482.29
2022-11-10T04:58:57.829Z,100478.66
2022-11-10T05:00:18.926Z,100484.02
2022-11-10T05:01:39.788Z,100484.02
2022-11-10T05:03:03.607Z,100494.73
2022-11-10T05:04:24.762Z,100493.78
2022-11-10T05:05:45.203Z,100483.92
2022-11-10T05:07:06.109Z,100481.25
2022-11-10T05:08:28.041Z,100483.92
2022-11-10T05:09:48.707Z,100483.08
2022-11-10T05:11:10.341Z,100483.92
2022-11-10T05:12:32.013Z,100496.47
2022-11-10T05:13:53.325Z,100497.31
2022-11-10T05:15:13.754Z,100494.63
2022-11-10T05:16:34.449Z,100491.95
2022-11-10T05:17:55.361Z,100498.20
2022-11-10T05:19:16.156Z,100495.52
2022-11-10T05:20:37.495Z,100492.75
2022-11-10T05:21:58.240Z,100500.78
2022-11-10T05:23:22.038Z,100504.30
2022-11-10T05:24:43.015Z,100505.16
2022-11-10T05:27:20.594Z,100506.36
2022-11-10T05:28:42.088Z,100504.21
2022-11-10T05:30:03.493Z,100505.09
2022-11-10T05:31:24.374Z,100516.66
2022-11-10T05:32:45.834Z,100510.36
2022-11-10T05:34:06.208Z,100505.85
2022-11-10T05:35:27.291Z,100504.02
2022-11-10T05:36:47.931Z,100506.70
2022-11-10T05:39:30.002Z,100506.70
2022-11-10T05:43:32.142Z,100510.17
2022-11-10T05:47:36.639Z,100509.38
2022-11-10T05:48:57.754Z,100512.06
2022-11-10T05:50:19.768Z,100514.73
2022-11-10T05:51:40.380Z,100513.03
2022-11-10T05:53:01.377Z,100517.41
2022-11-10T05:54:22.035Z,100519.23
2022-11-10T05:55:43.172Z,100515.71
2022-11-10T05:57:04.095Z,100521.92
2022-11-10T05:58:25.509Z,100525.54
2022-11-10T05:59:46.968Z,100530.05
2022-11-10T06:01:07.997Z,100529.19
2022-11-10T06:02:28.730Z,100531.87
2022-11-10T06:03:50.859Z,100534.55
2022-11-10T06:05:12.037Z,100528.22
2022-11-10T06:06:32.915Z,100534.55
2022-11-10T06:07:53.391Z,100528.31
2022-11-10T06:09:14.209Z,100536.34
2022-11-10T06:10:35.543Z,100537.23
2022-11-10T06:11:56.133Z,100545.26
2022-11-10T06:13:17.322Z,100540.75
2022-11-10T06:14:38.435Z,100550.52
2022-11-10T06:15:58.925Z,100551.38
2022-11-10T06:17:21.789Z,100551.38
2022-11-10T06:18:42.350Z,100546.95
2022-11-10T06:20:04.144Z,100537.23
2022-11-10T06:21:25.666Z,100545.26
2022-11-10T06:23:07.122Z,100540.75
2022-11-10T06:24:28.010Z,100546.02
2022-11-10T06:25:49.347Z,100542.58
2022-11-10T06:27:10.189Z,100552.31
2022-11-10T06:28:30.968Z,100552.31
2022-11-10T06:29:52.726Z,100552.31
2022-11-10T06:31:13.362Z,100557.67
2022-11-10T06:32:34.274Z,100554.05
2022-11-10T06:33:55.047Z,100557.67
2022-11-10T06:35:15.922Z,100556.73
2022-11-10T06:36:36.548Z,100555.78
2022-11-10T10:07:26.175Z,100558.48
2022-11-10T10:10:55.919Z,100562.84
2022-11-10T10:12:23.707Z,100557.69
2022-11-10T10:14:00.485Z,100564.14
2022-11-10T10:15:30.949Z,100571.48
2022-11-10T10:18:31.863Z,100567.80
2022-11-10T10:20:05.331Z,100564.32
2022-11-10T10:21:44.360Z,100565.52
2022-11-10T10:24:26.548Z,100567.95
2022-11-10T10:25:50.174Z,100562.86
2022-11-10T10:27:13.940Z,100557.93
2022-11-10T10:28:38.274Z,100561.92
2022-11-10T10:29:59.184Z,100564.12
2022-11-10T10:31:24.400Z,100571.70
2022-11-10T10:32:44.712Z,100561.56
2022-11-10T10:34:13.946Z,100556.75
2022-11-10T10:35:40.576Z,100555.55
2022-11-10T10:36:57.278Z,100557.12
2022-11-10T10:38:30.224Z,100554.27
2022-11-10T10:39:52.543Z,100563.85
2022-11-10T10:42:37.559Z,100546.95
2022-11-10T10:44:00.644Z,100556.36
2022-11-10T10:45:26.022Z,100558.09
2022-11-10T10:47:00.111Z,100560.69
2022-11-10T10:48:23.480Z,100558.77
2022-11-10T10:49:44.278Z,100564.07
2022-11-10T10:51:05.190Z,100555.95
2022-11-10T10:52:26.088Z,100557.75
2022-11-10T10:53:47.219Z,100557.75
2022-11-10T10:55:08.009Z,100551.28
2022-11-10T10:56:31.138Z,100563.63
2022-11-10T10:57:55.073Z,100565.27
2022-11-10T10:59:20.911Z,100564.27
2022-11-10T11:00:51.229Z,100567.72
2022-11-10T11:02:29.361Z,100563.16
2022-11-10T11:03:51.246Z,100563.92
2022-11-10T11:06:30.729Z,100565.73
2022-11-10T11:07:59.891Z,100570.65
2022-11-10T11:10:44.494Z,100569.81
2022-11-10T11:12:08.112Z,100565.81
2022-11-10T11:13:28.884Z,100580.84
2022-11-10T11:14:49.734Z,100565.49
2022-11-10T11:16:11.318Z,100566.25
2022-11-10T11:17:32.161Z,100567.89
2022-11-10T11:18:53.733Z,100572.30
2022-11-10T11:20:16.345Z,100577.57
2022-11-10T11:23:38.346Z,100561.56
2022-11-10T11:26:33.139Z,100565.98
2022-11-10T11:28:24.297Z,100571.84
2022-11-10T11:29:48.958Z,100561.14
2022-11-10T11:31:42.993Z,100566.41
2022-11-10T11:33:11.585Z,100575.32
2022-11-10T11:35:10.150Z,100564.70
2022-11-10T11:38:07.557Z,100564.34
2022-11-10T11:39:53.635Z,100568.50
2022-11-10T11:41:26.599Z,100571.27
2022-11-10T11:43:01.573Z,100561.60
2022-11-10T11:44:38.573Z,100576.78
2022-11-10T11:46:06.056Z,100585.87
2022-11-10T11:47:54.958Z,100577.84
2022-11-10T11:49:36.266Z,100578.78
2022-11-10T11:50:58.563Z,100572.73
2022-11-10T11:54:09.154Z,100577.57
2022-11-10T11:55:39.178Z,100584.47
2022-11-10T11:57:20.133Z,100586.28
2022-11-10T11:58:44.729Z,100579.11
2022-11-10T12:00:08.257Z,100583.70
2022-11-10T12:01:49.241Z,100573.84
2022-11-10T12:04:42.886Z,100583.95
2022-11-10T12:06:19.288Z,100590.88
2022-11-10T12:07:46.210Z,100590.88
2022-11-10T12:09:43.015Z,100587.23
2022-11-10T12:12:49.490Z,100584.89
2022-11-10T12:14:28.964Z,100584.64
2022-11-10T12:17:08.756Z,100576.86
2022-11-10T12:18:34.583Z,100579.30
2022-11-10T12:20:27.664Z,100572.14
2022-11-10T12:21:51.368Z,100570.32
2022-11-10T12:23:31.273Z,100572.05
2022-11-10T12:25:01.013Z,100572.81
2022-11-10T12:26:40.391Z,100569.29
2022-11-10T12:28:20.349Z,100577.31
2022-11-10T12:31:02.013Z,100571.33
2022-11-10T12:32:27.910Z,100582.67
2022-11-10T12:33:53.339Z,100577.31
2022-11-10T12:35:28.006Z,100574.64
2022-11-10T12:36:49.978Z,100579.02
2022-11-10T12:39:44.236Z,100583.69
2022-11-10T12:41:08.967Z,100582.58
2022-11-10T12:42:30.924Z,100576.34
2022-11-10T12:44:16.154Z,100585.16
2022-11-10T12:45:45.951Z,100577.14
2022-11-10T12:47:07.230Z,100578.08
2022-11-10T12:48:32.237Z,100583.34
2022-11-10T12:53:03.076Z,100579.21
2022-11-10T12:54:23.316Z,100579.81
2022-11-10T12:55:47.005Z,100578.88
2022-11-10T12:57:11.301Z,100578.88
2022-11-10T12:58:36.339Z,100573.52
2022-11-10T13:00:05.323Z,100575.22
2022-11-10T13:01:27.022Z,100586.81
2022-11-10T13:02:48.091Z,100582.31
2022-11-10T13:04:16.706Z,100596.58
2022-11-10T13:05:40.029Z,100592.08
2022-11-10T13:07:02.366Z,100592.83
2022-11-10T13:08:28.410Z,100595.52
2022-11-10T13:09:49.287Z,100590.16
2022-11-10T13:11:17.167Z,100586.54
2022-11-10T13:12:39.767Z,100586.54
2022-11-10T13:14:03.856Z,100583.02
2022-11-10T13:15:45.418Z,100574.98
2022-11-10T13:17:06.304Z,100585.69
2022-11-10T13:18:34.832Z,100582.13
2022-11-10T13:19:58.947Z,100577.75
2022-11-10T13:21:19.264Z,100576.86
2022-11-10T13:22:40.309Z,100574.19
2022-11-10T13:24:05.189Z,100576.02
2022-11-10T13:25:38.803Z,100572.48
2022-11-10T13:27:01.419Z,100577.84
2022-11-10T13:28:48.978Z,100569.02
2022-11-10T13:30:15.541Z,100572.55
2022-11-10T13:31:38.527Z,100579.63
2022-11-10T13:33:19.438Z,100584.98
2022-11-10T13:34:44.117Z,100577.84
2022-11-10T13:36:06.533Z,100580.52
2022-11-10T13:37:34.664Z,100580.58
2022-11-10T13:38:56.084Z,100584.23
2022-11-10T13:40:26.924Z,100584.13
2022-11-10T13:42:11.072Z,100580.58
2022-11-10T13:43:32.120Z,100585.92
2022-11-10T13:44:52.618Z,100593.90
2022-11-10T13:46:13.692Z,100587.66
2022-11-10T13:47:55.584Z,100601.93
2022-11-10T13:49:40.466Z,100603.72
2022-11-10T13:51:13.530Z,100602.87
2022-11-10T13:52:45.143Z,100613.58
2022-11-10T13:54:13.076Z,100608.22
2022-11-10T13:55:54.659Z,100612.69
2022-11-10T13:57:36.010Z,100614.42
2022-11-10T13:58:57.725Z,100609.16
2022-11-10T14:01:34.721Z,100621.02
2022-11-10T14:03:10.050Z,100618.93
2022-11-10T14:04:41.833Z,100615.38
2022-11-10T14:06:06.146Z,100607.28
2022-11-10T14:08:42.457Z,100597.68
2022-11-10T14:10:10.592Z,100599.07
2022-11-10T14:12:57.464Z,100602.85
2022-11-10T14:14:25.016Z,100610.45
2022-11-10T14:15:49.116Z,100610.45
2022-11-10T14:18:43.468Z,100599.94
2022-11-10T14:20:08.575Z,100597.77
2022-11-10T14:21:55.355Z,100595.85
2022-11-10T14:24:38.899Z,100595.25
2022-11-10T17:06:34.136Z,100578.63
2022-11-10T17:07:55.173Z,100583.22
2022-11-10T17:09:20.204Z,100581.59
2022-11-10T17:10:44.135Z,100580.83
2022-11-10T17:12:08.238Z,100579.87
2022-11-10T17:13:29.431Z,100570.94
2022-11-10T17:14:51.233Z,100577.98
2022-11-10T17:17:46.877Z,100570.06
2022-11-10T17:19:08.899Z,100570.88
2022-11-10T17:20:35.390Z,100573.63
2022-11-10T17:21:56.906Z,100571.03
2022-11-10T17:23:19.655Z,100570.30
2022-11-10T17:24:43.199Z,100574.02
2022-11-10T17:26:07.665Z,100569.82
2022-11-10T17:27:33.941Z,100577.18
2022-11-10T17:28:53.998Z,100581.09
2022-11-10T17:30:16.831Z,100572.56
2022-11-10T17:31:37.426Z,100578.34
2022-11-10T17:33:04.617Z,100577.84
2022-11-10T17:34:21.463Z,100593.45
2022-11-10T17:35:46.556Z,100587.77
2022-11-10T17:37:09.592Z,100581.19
2022-11-10T17:38:30.987Z,100583.50
2022-11-10T17:39:51.462Z,100581.43
2022-11-10T17:41:18.497Z,100585.56
2022-11-10T17:42:38.859Z,100583.49
2022-11-10T17:43:59.716Z,100581.38
2022-11-10T17:45:25.135Z,100585.64
2022-11-10T17:46:46.038Z,100584.61
2022-11-10T17:48:07.898Z,100584.41
2022-11-10T17:49:28.698Z,100591.32
2022-11-10T17:50:49.832Z,100588.45
2022-11-10T17:52:12.848Z,100583.88
2022-11-10T17:53:33.808Z,100597.97
2022-11-10T17:54:56.893Z,100590.69
2022-11-10T17:56:18.752Z,100594.13
2022-11-10T17:57:39.685Z,100598.45
2022-11-10T17:59:01.522Z,100592.14
2022-11-10T18:00:22.667Z,100588.52
2022-11-10T18:01:44.064Z,100590.25
2022-11-10T18:03:05.780Z,100589.27
2022-11-10T18:04:26.198Z,100584.79
2022-11-10T18:05:48.501Z,100589.17
2022-11-10T18:07:09.825Z,100583.72
2022-11-10T18:08:30.791Z,100584.60
2022-11-10T18:09:52.092Z,100590.81
2022-11-10T18:11:15.067Z,100585.45
2022-11-10T18:12:35.582Z,100592.45
2022-11-10T18:13:56.451Z,100593.39
2022-11-10T18:15:17.094Z,100593.39
2022-11-10T18:16:39.027Z,100596.08
2022-11-10T18:18:01.089Z,100589.77
2022-11-10T18:19:22.037Z,100589.67
2022-11-10T18:20:43.056Z,100592.26
2022-11-10T18:22:03.935Z,100587.88
2022-11-10T18:23:25.062Z,100591.31
2022-11-10T18:24:46.967Z,100587.78
2022-11-10T18:26:11.880Z,100587.78
2022-11-10T18:27:32.946Z,100591.31
2022-11-10T18:28:54.557Z,100585.36
2022-11-10T18:30:16.622Z,100582.11
2022-11-10T18:31:38.348Z,100590.41
2022-11-10T18:33:03.654Z,100587.73
2022-11-10T18:34:24.996Z,100584.10
2022-11-10T18:35:45.579Z,100587.91
2022-11-10T18:37:07.551Z,100596.23
2022-11-10T18:38:28.512Z,100594.50
2022-11-10T18:39:49.811Z,100599.02
2022-11-10T18:41:10.723Z,100600.81
2022-11-10T18:42:31.563Z,100603.48
2022-11-10T18:43:53.315Z,100613.27
2022-11-10T18:45:15.175Z,100606.95
2022-11-10T18:46:35.909Z,100613.16
2022-11-10T18:48:01.498Z,100610.39
2022-11-10T18:49:22.140Z,100607.62
2022-11-10T18:50:44.108Z,100611.09
2022-11-10T18:52:04.836Z,100610.05
2022-11-10T18:53:26.997Z,100616.26
2022-11-10T18:54:52.255Z,100617.11
2022-11-10T18:56:13.924Z,100603.99
2022-11-10T18:57:35.333Z,100612.53
2022-11-10T18:58:57.287Z,100615.12
2022-11-10T19:00:19.464Z,100620.39
2022-11-10T19:01:41.357Z,100624.80
2022-11-10T19:03:02.762Z,100617.61
2022-11-10T19:04:25.372Z,100620.20
2022-11-10T19:05:52.084Z,100612.06
2022-11-10T19:07:12.285Z,100617.36
2022-11-10T19:08:33.180Z,100613.70
2022-11-10T19:09:54.030Z,100618.97
2022-11-10T19:11:15.985Z,100623.37
2022-11-10T19:12:36.350Z,100625.11
2022-11-10T19:13:59.457Z,100625.97
2022-11-10T19:15:21.256Z,100632.97
2022-11-10T19:16:42.892Z,100630.28
2022-11-10T19:18:05.039Z,100632.97
2022-11-10T19:19:26.144Z,100636.50
2022-11-10T19:20:46.705Z,100632.87
2022-11-10T19:22:08.960Z,100629.34
2022-11-10T19:23:29.714Z,100620.25
2022-11-10T19:26:21.879Z,100626.37
2022-11-10T19:27:38.925Z,100631.63
2022-11-10T19:29:00.108Z,100623.59
2022-11-10T19:30:21.716Z,100631.53
2022-11-10T19:31:42.849Z,100628.00
2022-11-10T19:33:04.973Z,100627.06
2022-11-10T19:34:25.797Z,100621.70
2022-11-10T19:35:46.332Z,100624.38
2022-11-10T19:37:07.987Z,100619.87
2022-11-10T19:38:28.559Z,100618.07
2022-11-10T19:39:49.569Z,100619.77
2022-11-10T19:42:29.943Z,100617.30
2022-11-10T19:43:51.374Z,100618.83
2022-11-10T19:45:13.216Z,100617.88
2022-11-10T19:46:34.055Z,100618.73
2022-11-10T19:47:54.565Z,100610.68
2022-11-10T19:49:15.820Z,100611.47
2022-11-10T19:50:36.824Z,100606.95
2022-11-10T19:51:58.176Z,100607.91
2022-11-10T19:53:20.808Z,100604.38
2022-11-10T19:54:42.141Z,100607.91
2022-11-10T19:56:13.283Z,100608.00
2022-11-10T19:57:34.180Z,100609.83
2022-11-10T19:58:57.727Z,100610.68
2022-11-10T20:00:19.640Z,100609.83
2022-11-10T20:01:41.387Z,100609.73
2022-11-10T20:03:03.449Z,100608.85
2022-11-10T20:04:25.876Z,100609.83
2022-11-10T20:05:47.517Z,100610.78
2022-11-10T20:07:08.473Z,100606.36
2022-11-10T20:08:29.624Z,100608.20
2022-11-10T20:09:50.415Z,100610.88
2022-11-10T20:11:13.231Z,100610.03
2022-11-10T20:12:33.932Z,100611.92
2022-11-10T20:13:56.264Z,100607.41
2022-11-10T20:15:16.961Z,100606.66
2022-11-10T20:16:39.040Z,100600.44
2022-11-10T20:18:00.962Z,100608.48
2022-11-10T20:19:21.527Z,100608.48
2022-11-10T20:20:42.960Z,100603.97
2022-11-10T20:22:04.264Z,100608.39
2022-11-10T20:23:26.201Z,100610.19
2022-11-10T20:24:51.031Z,100609.34
2022-11-10T20:26:15.252Z,100619.96
2022-11-10T20:27:35.816Z,100608.30
2022-11-10T20:28:57.027Z,100611.92
2022-11-10T20:30:23.487Z,100611.92
2022-11-10T20:31:41.373Z,100609.14
2022-11-10T20:33:03.383Z,100610.97
2022-11-10T20:34:23.770Z,100613.66
2022-11-10T20:35:44.565Z,100604.73
2022-11-10T20:37:07.819Z,100611.92
2022-11-10T20:38:28.379Z,100613.75
2022-11-10T20:39:49.193Z,100607.50
2022-11-10T20:42:24.637Z,100604.97
2022-11-10T20:43:47.549Z,100617.19
2022-11-10T20:45:11.069Z,100611.92
2022-11-10T20:46:53.335Z,100613.66
2022-11-10T20:47:54.563Z,100612.77
2022-11-10T20:49:16.535Z,100610.09
2022-11-10T20:50:39.300Z,100620.81
2022-11-10T20:52:00.375Z,100619.96
2022-11-10T20:53:21.711Z,100619.11
2022-11-10T20:54:42.568Z,100616.43
2022-11-10T20:56:04.212Z,100620.91
2022-11-10T20:57:24.642Z,100616.53
2022-11-10T20:58:45.402Z,100615.64
2022-11-10T21:00:07.820Z,100619.27
2022-11-10T21:01:28.688Z,100618.42
2022-11-10T21:02:49.802Z,100616.69
2022-11-10T21:04:10.497Z,100615.84
2022-11-10T21:05:31.017Z,100622.05
2022-11-10T21:06:51.949Z,100615.84
2022-11-10T21:08:13.704Z,100614.01
2022-11-10T21:09:35.288Z,100618.52
2022-11-10T21:10:57.627Z,100624.73
2022-11-10T21:12:20.375Z,100626.56
2022-11-10T21:13:42.187Z,100618.42
2022-11-10T21:15:04.915Z,100623.78
2022-11-10T21:16:25.286Z,100630.00
2022-11-10T21:17:47.470Z,100633.56
2022-11-10T21:19:08.094Z,100636.24
2022-11-10T21:20:32.234Z,100641.51
2022-11-10T21:21:53.915Z,100645.04
2022-11-10T21:23:15.527Z,100639.77
2022-11-10T21:24:36.905Z,100638.83
2022-11-10T21:25:58.786Z,100629.94
2022-11-10T21:27:19.645Z,100642.36
2022-11-10T21:28:41.356Z,100640.66
2022-11-10T21:30:02.004Z,100643.34
2022-11-10T21:31:24.171Z,100638.04
2022-11-10T21:32:44.997Z,100637.19
2022-11-10T21:34:05.916Z,100634.51
2022-11-10T21:35:28.009Z,100642.64
2022-11-10T21:36:48.455Z,100631.92
2022-11-10T21:38:11.938Z,100639.11
2022-11-10T21:39:33.327Z,100633.81
2022-11-10T21:40:55.084Z,100640.16
2022-11-10T21:42:15.645Z,100637.57
2022-11-10T21:43:36.137Z,100633.06
2022-11-10T21:44:56.960Z,100636.69
2022-11-10T21:46:18.282Z,100633.06
2022-11-10T21:47:38.715Z,100628.55
2022-11-10T21:49:04.552Z,100639.17
2022-11-10T21:50:22.298Z,100639.17
2022-11-10T21:51:42.858Z,100641.80
2022-11-10T21:53:07.744Z,100642.73
2022-11-10T21:54:28.165Z,100639.11
2022-11-10T21:55:49.382Z,100644.37
2022-11-10T21:57:11.145Z,100642.55
2022-11-10T21:58:34.430Z,100639.77
2022-11-10T21:59:54.873Z,100635.30
2022-11-10T22:01:17.683Z,100639.67
2022-11-10T22:02:38.686Z,100631.63
2022-11-10T22:03:59.530Z,100631.63
2022-11-10T22:06:31.880Z,100631.78
2022-11-10T22:07:53.856Z,100632.33
2022-11-10T22:09:14.575Z,100635.01
2022-11-10T22:10:36.937Z,100633.17
2022-11-10T22:11:58.106Z,100631.28
2022-11-10T22:13:18.849Z,100632.13
2022-11-10T22:14:40.974Z,100629.36
2022-11-10T22:16:03.430Z,100630.23
2022-11-10T22:17:23.981Z,100624.88
2022-11-10T22:18:44.757Z,100634.63
2022-11-10T22:20:07.486Z,100629.26
2022-11-10T22:21:28.884Z,100629.26
2022-11-10T22:22:49.419Z,100629.16
2022-11-10T22:24:10.624Z,100631.84
2022-11-10T22:25:31.746Z,100631.84
2022-11-10T22:26:55.745Z,100630.05
2022-11-10T22:28:18.764Z,100628.22
2022-11-10T22:29:39.501Z,100633.58
2022-11-10T22:31:01.963Z,100626.42
2022-11-10T22:32:22.803Z,100629.95
2022-11-10T22:33:43.151Z,100631.68
2022-11-10T22:35:04.756Z,100633.48
2022-11-10T22:36:25.194Z,100629.00
2022-11-10T22:37:46.233Z,100639.63
2022-11-10T22:39:06.949Z,100637.80
2022-11-10T22:40:27.843Z,100634.27
2022-11-10T22:41:48.814Z,100636.06
2022-11-10T22:43:09.305Z,100640.48
2022-11-10T22:44:30.074Z,100642.21
2022-11-10T22:45:51.188Z,100636.85
2022-11-10T22:47:11.806Z,100637.70
2022-11-10T22:49:45.498Z,100640.55
2022-11-10T22:51:05.953Z,100638.52
2022-11-10T22:52:27.256Z,100635.91
2022-11-10T22:53:49.005Z,100636.69
2022-11-10T22:55:09.784Z,100635.74